Time;durP1;ratioP1;P1;durP2;ratioP2;P2;SDS_P1;SDS_P2;PMS_P1;PMS_P2;Temp;Humidity;BMP_temperature;BMP_pressure;BME280_temperature;BME280_humidity;BME280_pressure;Samples;Min_cycle;Max_cycle;Signal;HPM_P1;HPM_P2
2022/05/12 00:02:07;;;;;;;12.63;9.75;;;18.30;99.90;;;;;;5067866;28;20506;-69
2022/05/12 00:04:36;;;;;;;11.90;8.85;;;18.40;99.90;;;;;;5061241;28;20100;-61
2022/05/12 00:07:04;;;;;;;10.68;8.52;;;18.50;99.90;;;;;;5063869;28;20032;-61
2022/05/12 00:09:31;;;;;;;14.05;9.27;;;18.60;99.90;;;;;;5070086;28;20017;-61
2022/05/12 00:11:58;;;;;;;13.10;9.63;;;18.50;99.90;;;;;;5063840;28;20024;-69
2022/05/12 00:14:25;;;;;;;13.13;8.90;;;18.60;99.90;;;;;;5066804;28;20360;-63
2022/05/12 00:16:56;;;;;;;11.93;8.65;;;18.60;99.90;;;;;;5060512;28;20061;-63
2022/05/12 00:19:26;;;;;;;13.20;8.30;;;18.50;99.90;;;;;;5069099;28;20017;-70
2022/05/12 00:21:54;;;;;;;11.57;7.68;;;18.50;99.90;;;;;;5068961;28;20031;-70
2022/05/12 00:24:22;;;;;;;11.25;7.10;;;18.60;99.90;;;;;;5059922;28;20051;-61
2022/05/12 00:26:49;;;;;;;9.85;6.82;;;18.60;99.90;;;;;;5065704;28;20036;-70
2022/05/12 00:29:16;;;;;;;13.35;7.13;;;18.50;99.90;;;;;;5072846;28;20024;-63
2022/05/12 00:31:45;;;;;;;12.20;7.18;;;18.50;99.90;;;;;;5073542;28;20070;-70
2022/05/12 00:34:14;;;;;;;6.97;5.50;;;18.40;99.90;;;;;;5062493;28;20021;-65
2022/05/12 00:36:41;;;;;;;15.30;7.72;;;18.40;99.90;;;;;;5067751;28;20507;-70
2022/05/12 00:39:08;;;;;;;9.55;6.22;;;18.40;99.90;;;;;;5072704;28;20345;-70
2022/05/12 00:41:36;;;;;;;14.88;6.90;;;18.40;99.90;;;;;;5072737;28;20115;-62
2022/05/12 00:44:07;;;;;;;9.77;6.75;;;18.50;99.90;;;;;;5071722;28;20027;-64
2022/05/12 00:46:37;;;;;;;10.15;6.57;;;18.70;99.90;;;;;;5074309;28;20029;-70
2022/05/12 00:49:27;;;;;;;10.73;6.95;;;18.80;99.90;;;;;;5072873;28;20028;-70
2022/05/12 00:52:10;;;;;;;12.32;7.38;;;18.90;99.90;;;;;;5072369;28;20378;-63
2022/05/12 00:54:44;;;;;;;9.95;7.18;;;18.90;99.90;;;;;;5072455;28;20031;-63
2022/05/12 00:57:16;;;;;;;10.40;7.80;;;19.00;99.90;;;;;;5073048;28;20108;-67
2022/05/12 00:59:43;;;;;;;10.27;8.10;;;19.00;99.90;;;;;;5072892;28;20417;-61
2022/05/12 01:02:17;;;;;;;12.30;9.23;;;19.10;99.90;;;;;;5071982;28;20399;-69
2022/05/12 01:04:47;;;;;;;11.95;8.98;;;19.20;99.90;;;;;;5073022;28;20037;-66
2022/05/12 01:07:15;;;;;;;16.10;7.88;;;19.30;99.90;;;;;;5072638;28;20581;-70
2022/05/12 01:09:42;;;;;;;9.70;7.95;;;19.30;99.90;;;;;;5068680;28;20107;-63
2022/05/12 01:12:10;;;;;;;13.93;8.60;;;19.40;99.90;;;;;;5071117;28;20029;-63
2022/05/12 01:14:37;;;;;;;11.57;7.55;;;19.40;99.90;;;;;;5071866;28;20054;-65
2022/05/12 01:17:05;;;;;;;9.98;6.93;;;19.40;99.90;;;;;;5072310;28;20020;-72
2022/05/12 01:19:39;;;;;;;10.30;6.57;;;19.50;99.90;;;;;;5070004;28;20511;-65
2022/05/12 01:22:09;;;;;;;14.57;8.77;;;19.50;99.90;;;;;;5069718;28;20037;-62
2022/05/12 01:24:40;;;;;;;10.57;8.40;;;19.50;99.90;;;;;;5071734;28;20435;-65
2022/05/12 01:27:22;;;;;;;13.13;8.82;;;19.50;99.90;;;;;;5071747;28;20032;-67
2022/05/12 01:29:50;;;;;;;13.35;8.70;;;19.60;99.90;;;;;;5070569;28;20055;-70
2022/05/12 01:32:19;;;;;;;13.77;7.93;;;19.80;99.90;;;;;;5070109;28;20027;-67
2022/05/12 01:34:46;;;;;;;11.52;7.18;;;19.90;99.90;;;;;;5069731;28;20036;-67
2022/05/12 01:37:13;;;;;;;12.38;7.32;;;19.90;99.90;;;;;;5071101;28;20037;-67
2022/05/12 01:39:41;;;;;;;11.75;8.25;;;20.00;99.90;;;;;;5071468;28;20035;-65
2022/05/12 01:42:09;;;;;;;13.60;8.18;;;20.00;99.90;;;;;;5070307;28;20035;-66
2022/05/12 01:44:37;;;;;;;10.57;7.22;;;20.00;99.90;;;;;;5070650;28;20059;-62
2022/05/12 01:47:06;;;;;;;8.55;5.85;;;20.00;99.90;;;;;;5070926;28;20107;-71
2022/05/12 01:49:33;;;;;;;14.40;7.40;;;19.90;99.90;;;;;;5070799;28;20032;-68
2022/05/12 01:52:01;;;;;;;12.25;6.63;;;19.90;99.90;;;;;;5070217;28;20024;-64
2022/05/12 01:54:29;;;;;;;9.80;6.40;;;19.90;99.90;;;;;;5070981;28;20027;-62
2022/05/12 01:56:57;;;;;;;11.05;7.43;;;20.00;99.90;;;;;;5069561;28;20536;-62
2022/05/12 01:59:24;;;;;;;11.85;7.50;;;20.20;99.90;;;;;;5070209;28;20115;-63
2022/05/12 02:01:52;;;;;;;14.40;6.90;;;20.20;99.90;;;;;;5070060;28;20020;-68
2022/05/12 02:04:19;;;;;;;10.65;7.00;;;20.20;99.90;;;;;;5069231;28;20089;-65
2022/05/12 02:06:47;;;;;;;13.32;8.85;;;20.20;99.90;;;;;;5069617;28;20020;-63
2022/05/12 02:09:14;;;;;;;11.15;7.82;;;20.10;99.90;;;;;;5070633;28;20028;-63
2022/05/12 02:11:41;;;;;;;14.93;9.43;;;19.90;99.90;;;;;;5070339;28;20426;-65
2022/05/12 02:14:08;;;;;;;12.35;9.30;;;19.90;99.90;;;;;;5070325;28;20172;-70
2022/05/12 02:16:35;;;;;;;12.70;9.20;;;19.90;99.90;;;;;;5069912;28;20025;-67
2022/05/12 02:19:05;;;;;;;13.43;10.13;;;20.00;99.90;;;;;;5069972;28;20094;-71
2022/05/12 02:21:33;;;;;;;14.25;9.90;;;20.10;99.90;;;;;;5069292;28;20024;-66
2022/05/12 02:24:00;;;;;;;13.27;9.63;;;20.00;99.90;;;;;;5070749;28;20483;-65
2022/05/12 02:26:28;;;;;;;15.35;9.50;;;20.00;99.90;;;;;;5070857;28;20112;-66
2022/05/12 02:28:55;;;;;;;12.75;8.57;;;19.90;99.90;;;;;;5070637;28;20543;-67
2022/05/12 02:31:22;;;;;;;16.38;9.70;;;19.80;99.90;;;;;;5069908;28;20059;-64
2022/05/12 02:33:49;;;;;;;14.63;10.43;;;19.80;99.90;;;;;;5068125;28;20450;-70
2022/05/12 02:36:16;;;;;;;15.00;9.93;;;19.80;99.90;;;;;;5069969;28;20108;-70
2022/05/12 02:38:43;;;;;;;17.08;10.82;;;19.70;99.90;;;;;;5068100;28;20045;-70
2022/05/12 02:41:10;;;;;;;13.68;10.65;;;19.80;99.90;;;;;;5067483;28;20024;-66
2022/05/12 02:43:37;;;;;;;11.73;9.40;;;19.80;99.90;;;;;;5066292;28;20024;-70
2022/05/12 02:46:10;;;;;;;20.75;11.30;;;19.80;99.90;;;;;;5068517;28;20025;-65
2022/05/12 02:48:37;;;;;;;;;;;19.80;99.90;;;;;;5067251;28;20035;-66
2022/05/12 02:51:05;;;;;;;15.00;10.48;;;19.90;99.90;;;;;;5067580;28;19951;-70
2022/05/12 02:53:32;;;;;;;12.63;10.25;;;19.90;99.90;;;;;;5068285;28;20021;-62
2022/05/12 02:56:00;;;;;;;16.33;9.52;;;19.90;99.90;;;;;;5067504;28;20016;-70
2022/05/12 02:58:28;;;;;;;15.43;8.95;;;19.90;99.90;;;;;;5064659;28;20043;-65
2022/05/12 03:00:56;;;;;;;15.02;9.25;;;19.90;99.90;;;;;;5065087;28;20020;-62
2022/05/12 03:03:23;;;;;;;13.90;8.55;;;19.80;99.90;;;;;;5067225;28;20024;-69
2022/05/12 03:05:52;;;;;;;12.50;7.55;;;19.70;99.90;;;;;;5062673;28;20078;-70
2022/05/12 03:08:19;;;;;;;14.73;8.48;;;19.60;99.90;;;;;;5068194;28;20043;-66
2022/05/12 03:10:49;;;;;;;8.32;7.45;;;19.60;99.90;;;;;;5063924;28;20536;-62
2022/05/12 03:13:16;;;;;;;13.15;7.65;;;19.50;99.90;;;;;;5065302;28;20032;-69
2022/05/12 03:15:43;;;;;;;12.75;7.65;;;19.60;99.90;;;;;;5066276;28;20521;-65
2022/05/12 03:18:10;;;;;;;15.60;7.63;;;19.60;99.90;;;;;;5066845;28;20425;-66
2022/05/12 03:20:37;;;;;;;10.98;6.57;;;19.70;99.90;;;;;;5066217;28;20023;-70
2022/05/12 03:23:04;;;;;;;13.85;7.28;;;19.80;99.90;;;;;;5061019;28;20082;-64
2022/05/12 03:25:32;;;;;;;9.40;6.82;;;19.90;99.90;;;;;;5062804;28;20028;-61
2022/05/12 03:28:00;;;;;;;10.85;7.63;;;19.90;99.90;;;;;;5067122;28;20107;-62
2022/05/12 03:30:27;;;;;;;16.27;8.30;;;19.90;99.90;;;;;;5064545;28;20040;-64
2022/05/12 03:32:53;;;;;;;9.65;6.90;;;19.90;99.90;;;;;;5066482;28;20055;-64
2022/05/12 03:35:20;;;;;;;15.18;7.00;;;19.90;99.90;;;;;;5069641;28;20024;-62
2022/05/12 03:37:47;;;;;;;13.63;5.88;;;19.80;99.90;;;;;;5063200;28;20048;-64
2022/05/12 03:40:19;;;;;;;11.95;6.20;;;19.80;99.90;;;;;;5066846;28;20035;-63
2022/05/12 03:42:46;;;;;;;13.00;6.38;;;19.80;99.90;;;;;;5066537;28;20024;-65
2022/05/12 03:45:14;;;;;;;10.30;5.68;;;19.90;99.90;;;;;;5065595;28;20052;-64
2022/05/12 03:47:47;;;;;;;9.65;5.45;;;19.90;99.90;;;;;;5048475;28;20067;-63
2022/05/12 03:50:16;;;;;;;13.30;6.50;;;19.90;99.90;;;;;;5067116;28;20070;-67
2022/05/12 03:52:43;;;;;;;14.48;6.47;;;20.10;99.90;;;;;;5066440;28;20024;-68
2022/05/12 03:55:12;;;;;;;11.25;6.63;;;20.10;99.90;;;;;;5067497;28;20546;-64
2022/05/12 03:57:40;;;;;;;15.43;6.88;;;20.20;99.90;;;;;;5066944;28;20036;-65
2022/05/12 04:00:09;;;;;;;12.07;7.18;;;20.30;99.90;;;;;;5070930;28;20017;-62
2022/05/12 04:02:36;;;;;;;12.35;7.53;;;20.30;99.90;;;;;;5069897;28;20043;-62
2022/05/12 04:05:04;;;;;;;13.07;7.30;;;20.30;99.90;;;;;;5069816;28;20079;-67
2022/05/12 04:07:31;;;;;;;14.15;6.63;;;20.20;99.90;;;;;;5070259;28;20039;-68
2022/05/12 04:10:01;;;;;;;11.60;7.53;;;20.20;99.90;;;;;;5070652;28;20406;-62
2022/05/12 04:12:28;;;;;;;13.68;6.65;;;20.30;99.90;;;;;;5066616;28;20516;-64
2022/05/12 04:14:55;;;;;;;10.40;6.82;;;20.20;99.90;;;;;;5069969;28;20044;-69
2022/05/12 04:17:22;;;;;;;9.95;6.38;;;20.10;99.90;;;;;;5070007;28;20063;-65
2022/05/12 04:19:50;;;;;;;11.43;6.15;;;20.00;99.90;;;;;;5070700;28;20056;-65
2022/05/12 04:22:17;;;;;;;11.18;6.93;;;20.00;99.90;;;;;;5070159;28;20020;-64
2022/05/12 04:24:44;;;;;;;11.20;6.53;;;20.00;99.90;;;;;;5070090;28;20095;-69
2022/05/12 04:27:11;;;;;;;16.17;6.72;;;20.00;99.90;;;;;;5070234;28;20556;-64
2022/05/12 04:29:42;;;;;;;10.63;6.18;;;20.10;99.90;;;;;;5070572;28;20021;-63
2022/05/12 04:32:10;;;;;;;11.40;6.10;;;20.20;99.90;;;;;;5068503;28;20025;-64
2022/05/12 04:37:28;;;;;;;11.80;6.78;;;20.30;99.90;;;;;;5069348;28;20050;-64
2022/05/12 04:39:54;;;;;;;;;;;20.40;99.90;;;;;;5068492;28;20025;-65
2022/05/12 04:42:21;;;;;;;11.25;6.10;;;20.40;99.90;;;;;;5069848;28;20425;-69
2022/05/12 04:44:48;;;;;;;14.05;5.78;;;20.50;99.90;;;;;;5068102;28;20541;-65
2022/05/12 04:47:15;;;;;;;15.45;6.47;;;20.60;99.90;;;;;;5068169;28;20035;-62
2022/05/12 04:49:42;;;;;;;13.68;6.32;;;20.60;99.90;;;;;;5069773;28;20345;-64
2022/05/12 04:52:09;;;;;;;13.43;5.28;;;20.60;99.90;;;;;;5069105;28;20126;-65
2022/05/12 04:54:38;;;;;;;12.65;5.22;;;20.70;99.90;;;;;;5066853;28;20103;-65
2022/05/12 04:57:05;;;;;;;10.85;5.18;;;20.60;99.90;;;;;;5069262;28;20021;-62
2022/05/12 04:59:33;;;;;;;9.77;5.90;;;20.60;99.90;;;;;;5062698;28;20040;-65
2022/05/12 05:02:00;;;;;;;15.52;6.65;;;20.70;99.90;;;;;;5067851;28;20537;-65
2022/05/12 05:04:28;;;;;;;13.20;6.00;;;20.60;99.90;;;;;;5070718;28;20066;-66
2022/05/12 05:06:55;;;;;;;13.07;6.30;;;20.70;99.90;;;;;;5066195;28;20032;-64
2022/05/12 05:09:22;;;;;;;11.75;6.20;;;20.70;99.90;;;;;;5068565;28;20025;-64
2022/05/12 05:11:49;;;;;;;13.18;5.60;;;20.60;99.90;;;;;;5069059;28;20051;-64
2022/05/12 05:14:16;;;;;;;10.80;5.28;;;20.50;99.90;;;;;;5069064;28;20041;-65
2022/05/12 05:16:42;;;;;;;13.30;5.28;;;20.50;99.90;;;;;;5068891;28;20017;-63
2022/05/12 05:19:09;;;;;;;12.52;5.05;;;20.40;99.90;;;;;;5068658;28;20514;-65
2022/05/12 05:21:37;;;;;;;13.38;4.82;;;20.30;99.90;;;;;;5068566;28;20029;-65
2022/05/12 05:24:04;;;;;;;12.50;4.63;;;20.30;99.90;;;;;;5069157;28;20027;-64
2022/05/12 05:26:31;;;;;;;12.00;4.95;;;20.20;99.90;;;;;;5068724;28;20036;-64
2022/05/12 05:28:57;;;;;;;9.10;4.72;;;20.20;99.90;;;;;;5064457;28;20033;-64
2022/05/12 05:31:24;;;;;;;9.38;4.60;;;20.10;99.90;;;;;;5068902;28;20546;-65
2022/05/12 05:33:51;;;;;;;13.85;5.65;;;20.00;99.90;;;;;;5067483;28;20020;-64
2022/05/12 05:36:18;;;;;;;12.25;6.53;;;19.90;99.90;;;;;;5068933;28;20522;-68
2022/05/12 05:38:45;;;;;;;11.57;6.82;;;19.90;99.90;;;;;;5069116;28;20040;-63
2022/05/12 05:41:13;;;;;;;12.95;7.43;;;19.90;99.90;;;;;;5070168;28;20134;-68
2022/05/12 05:43:40;;;;;;;12.63;6.78;;;19.90;99.90;;;;;;5068558;28;20027;-63
2022/05/12 05:46:07;;;;;;;12.18;6.38;;;19.90;99.90;;;;;;5068372;28;20025;-68
2022/05/12 05:48:34;;;;;;;14.07;7.93;;;19.90;99.90;;;;;;5068322;28;20107;-63
2022/05/12 05:53:46;;;;;;;13.95;7.25;;;19.90;99.90;;;;;;5068451;28;20158;-66
2022/05/12 05:56:17;;;;;;;10.85;7.05;;;19.80;99.90;;;;;;5068689;28;20039;-66
2022/05/12 05:58:46;;;;;;;12.13;8.00;;;19.70;99.90;;;;;;5067060;28;20017;-68
2022/05/12 06:01:17;;;;;;;15.68;9.10;;;19.60;99.90;;;;;;5067227;28;20024;-64
2022/05/12 06:03:45;;;;;;;15.05;7.82;;;19.60;99.90;;;;;;5064613;28;20029;-64
2022/05/12 06:06:12;;;;;;;14.95;7.47;;;19.70;99.90;;;;;;5067500;28;20017;-64
2022/05/12 06:08:39;;;;;;;14.95;8.32;;;19.70;99.90;;;;;;5067075;28;20078;-62
2022/05/12 06:11:06;;;;;;;16.40;8.15;;;19.70;99.90;;;;;;5067117;28;20032;-64
2022/05/12 06:13:34;;;;;;;14.88;7.75;;;19.60;99.90;;;;;;5063631;28;20035;-66
2022/05/12 06:16:03;;;;;;;17.35;8.95;;;19.60;99.90;;;;;;5065489;28;20089;-63
2022/05/12 06:18:30;;;;;;;13.10;8.70;;;19.50;99.90;;;;;;5067979;28;20115;-65
2022/05/12 06:20:57;;;;;;;13.90;8.75;;;19.40;99.90;;;;;;5066671;28;20433;-65
2022/05/12 06:23:24;;;;;;;16.02;9.07;;;19.40;99.90;;;;;;5067340;28;20028;-68
2022/05/12 06:25:51;;;;;;;16.48;9.15;;;19.30;99.90;;;;;;5066968;28;20167;-65
2022/05/12 06:28:18;;;;;;;14.45;9.13;;;19.30;99.90;;;;;;5067516;28;20135;-65
2022/05/12 06:30:45;;;;;;;23.80;10.13;;;19.30;99.90;;;;;;5064730;28;20020;-65
2022/05/12 06:33:20;;;;;;;15.05;7.93;;;19.30;99.90;;;;;;5067298;28;20024;-66
2022/05/12 06:35:48;;;;;;;14.23;8.88;;;19.20;99.90;;;;;;5066226;28;20035;-64
2022/05/12 06:38:15;;;;;;;17.70;8.98;;;19.20;99.90;;;;;;5066849;28;20045;-68
2022/05/12 06:40:42;;;;;;;11.10;8.07;;;19.20;99.90;;;;;;5066460;28;20013;-65
2022/05/12 06:43:11;;;;;;;13.95;9.25;;;19.20;99.90;;;;;;5062608;28;20040;-65
2022/05/12 06:45:38;;;;;;;19.17;12.23;;;19.20;99.90;;;;;;5064690;28;20020;-64
2022/05/12 06:48:07;;;;;;;14.95;9.80;;;19.20;99.90;;;;;;5063399;28;20109;-64
2022/05/12 06:50:34;;;;;;;16.23;9.10;;;19.10;99.90;;;;;;5066767;28;20020;-66
2022/05/12 06:53:01;;;;;;;17.50;9.15;;;19.10;99.90;;;;;;5064314;28;20115;-67
2022/05/12 06:55:29;;;;;;;19.13;10.25;;;19.10;99.90;;;;;;5061856;28;20036;-68
2022/05/12 06:57:57;;;;;;;12.85;9.52;;;19.10;99.90;;;;;;5060926;28;20457;-67
2022/05/12 07:00:24;;;;;;;16.10;10.20;;;19.10;99.90;;;;;;5061860;28;20021;-68
2022/05/12 07:02:52;;;;;;;15.43;9.93;;;19.00;99.90;;;;;;5060485;28;20024;-66
2022/05/12 07:05:22;;;;;;;18.25;12.80;;;19.00;99.90;;;;;;5060440;28;20079;-67
2022/05/12 07:07:49;;;;;;;17.17;10.57;;;18.90;99.90;;;;;;5060789;28;20438;-68
2022/05/12 07:10:18;;;;;;;15.38;10.80;;;18.90;99.90;;;;;;5065093;28;20046;-64
2022/05/12 07:12:47;;;;;;;16.20;10.63;;;18.90;99.90;;;;;;5063211;28;20024;-64
2022/05/12 07:15:14;;;;;;;17.83;11.90;;;18.90;99.90;;;;;;5062170;28;20117;-68
2022/05/12 07:17:45;;;;;;;17.15;10.80;;;18.80;99.90;;;;;;5062684;28;20209;-67
2022/05/12 07:28:34;;;;;;;18.63;12.55;;;18.80;99.90;;;;;;5059691;28;20040;-67
2022/05/12 07:31:01;;;;;;;17.05;11.75;;;18.70;99.90;;;;;;5055500;28;20029;-63
2022/05/12 07:33:30;;;;;;;19.60;13.05;;;18.80;99.90;;;;;;5067223;28;20024;-63
2022/05/12 07:36:03;;;;;;;21.15;12.93;;;18.70;99.90;;;;;;5065786;28;20072;-63
2022/05/12 07:38:30;;;;;;;18.90;12.35;;;18.80;99.90;;;;;;5066926;28;20041;-66
2022/05/12 07:40:57;;;;;;;17.98;11.82;;;18.80;99.90;;;;;;5069176;28;20035;-68
2022/05/12 07:43:24;;;;;;;17.15;11.55;;;18.70;99.90;;;;;;5059771;28;20469;-66
2022/05/12 07:45:51;;;;;;;15.75;12.52;;;18.70;99.90;;;;;;5069432;28;20107;-61
2022/05/12 07:48:19;;;;;;;17.80;11.27;;;18.60;99.90;;;;;;5069685;28;20240;-65
2022/05/12 07:50:46;;;;;;;17.23;10.70;;;18.70;99.90;;;;;;5065970;28;20037;-62
2022/05/12 07:53:13;;;;;;;21.27;11.63;;;18.60;99.90;;;;;;5061175;28;20020;-66
2022/05/12 07:55:41;;;;;;;15.02;11.07;;;18.50;99.90;;;;;;5068069;28;20086;-61
2022/05/12 07:58:08;;;;;;;19.40;12.18;;;18.50;99.90;;;;;;5064277;28;20389;-60
2022/05/12 08:00:35;;;;;;;19.60;11.30;;;18.50;99.90;;;;;;5070814;28;20024;-62
2022/05/12 08:03:03;;;;;;;21.02;10.57;;;18.50;99.90;;;;;;5069052;28;20032;-65
2022/05/12 08:05:30;;;;;;;19.15;9.18;;;18.60;99.90;;;;;;5066526;28;20102;-62
2022/05/12 08:07:57;;;;;;;16.20;8.40;;;18.60;99.90;;;;;;5066026;28;20036;-62
2022/05/12 08:10:25;;;;;;;15.10;8.55;;;18.50;99.90;;;;;;5066985;28;20039;-65
2022/05/12 08:12:53;;;;;;;18.45;8.35;;;18.50;99.90;;;;;;5066414;28;20020;-62
2022/05/12 08:15:22;;;;;;;12.23;7.13;;;18.50;99.90;;;;;;5064442;28;20024;-66
2022/05/12 08:17:49;;;;;;;18.27;8.20;;;18.50;99.90;;;;;;5065366;28;20024;-66
2022/05/12 08:20:16;;;;;;;14.57;8.55;;;18.50;99.90;;;;;;5065781;28;20024;-61
2022/05/12 08:22:45;;;;;;;16.48;7.90;;;18.50;99.90;;;;;;5063086;28;20535;-65
2022/05/12 08:25:12;;;;;;;19.95;8.02;;;18.50;99.90;;;;;;5062467;28;20406;-65
2022/05/12 08:27:40;;;;;;;14.52;7.35;;;18.40;99.90;;;;;;5062386;28;20398;-61
2022/05/12 08:30:11;;;;;;;15.15;8.15;;;18.40;99.90;;;;;;5064062;28;20056;-61
2022/05/12 08:32:38;;;;;;;13.27;7.75;;;18.40;99.90;;;;;;5063304;28;20033;-65
2022/05/12 08:35:06;;;;;;;16.45;7.20;;;18.40;99.90;;;;;;5063818;28;20032;-61
2022/05/12 08:37:33;;;;;;;15.82;7.50;;;18.40;99.90;;;;;;5066125;28;20634;-65
2022/05/12 08:40:01;;;;;;;12.57;7.55;;;18.40;99.90;;;;;;5067286;28;21282;-61
2022/05/12 08:42:44;;;;;;;11.85;6.57;;;18.40;99.90;;;;;;5072401;28;20103;-65
2022/05/12 08:45:14;;;;;;;18.45;7.82;;;18.40;99.90;;;;;;5063463;28;20017;-65
2022/05/12 08:47:45;;;;;;;16.63;7.20;;;18.30;99.90;;;;;;5068957;28;20375;-65
2022/05/12 08:50:24;;;;;;;11.13;7.13;;;18.30;99.90;;;;;;5069475;28;20029;-61
2022/05/12 08:52:57;;;;;;;12.98;7.55;;;18.30;99.90;;;;;;5072003;28;20193;-63
2022/05/12 08:55:32;;;;;;;10.70;6.53;;;18.30;99.90;;;;;;5070072;28;20136;-61
2022/05/12 08:58:07;;;;;;;17.00;9.15;;;18.30;99.90;;;;;;5069311;28;20074;-63
2022/05/12 09:01:04;;;;;;;16.33;9.02;;;18.40;99.90;;;;;;5069667;28;20060;-66
2022/05/12 09:03:39;;;;;;;18.95;9.70;;;18.50;99.90;;;;;;5011449;28;20033;-67
2022/05/12 09:06:12;;;;;;;12.82;7.63;;;18.50;99.90;;;;;;5012197;28;20040;-60
2022/05/12 09:09:01;;;;;;;19.35;9.23;;;18.50;99.90;;;;;;5013846;28;20107;-68
2022/05/12 09:11:28;;;;;;;18.55;9.52;;;18.50;99.90;;;;;;5012846;28;20056;-63
2022/05/12 09:13:56;;;;;;;14.35;8.43;;;18.60;99.90;;;;;;5012413;28;20034;-65
2022/05/12 09:16:27;;;;;;;19.20;8.70;;;18.60;99.90;;;;;;5011723;28;20022;-65
2022/05/12 09:18:55;;;;;;;12.38;7.40;;;18.50;99.90;;;;;;4990482;28;20524;-65
2022/05/12 09:21:31;;;;;;;15.93;8.25;;;18.50;99.90;;;;;;5009132;28;20592;-66
2022/05/12 09:23:58;;;;;;;18.70;8.85;;;18.50;99.90;;;;;;5005944;28;20346;-67
2022/05/12 09:26:46;;;;;;;20.23;8.93;;;18.50;99.90;;;;;;5006358;28;20037;-65
2022/05/12 09:29:25;;;;;;;15.32;7.90;;;18.60;99.90;;;;;;5007576;28;20527;-68
2022/05/12 09:31:55;;;;;;;15.52;8.77;;;18.50;99.90;;;;;;5000595;28;20065;-65
2022/05/12 09:34:33;;;;;;;14.98;9.32;;;18.50;99.90;;;;;;5013675;28;20622;-68
2022/05/12 09:37:40;;;;;;;16.30;8.15;;;18.50;99.90;;;;;;5007288;28;20555;-66
2022/05/12 09:40:35;;;;;;;13.45;7.95;;;18.50;99.90;;;;;;5028573;28;20520;-65
2022/05/12 09:43:28;;;;;;;15.45;8.40;;;18.40;99.90;;;;;;5067470;28;20115;-67
2022/05/12 09:46:32;;;;;;;17.13;7.80;;;18.40;99.90;;;;;;4997327;28;20462;-62
2022/05/12 09:49:21;;;;;;;17.45;8.70;;;18.40;99.90;;;;;;4994806;28;20048;-64
2022/05/12 09:51:48;;;;;;;12.95;7.95;;;18.30;99.90;;;;;;4989574;28;20145;-65
2022/05/12 09:54:17;;;;;;;16.02;8.40;;;18.30;99.90;;;;;;4991573;28;20034;-65
2022/05/12 09:56:55;;;;;;;17.45;8.45;;;18.20;99.90;;;;;;4989092;28;20370;-68
2022/05/12 09:59:27;;;;;;;15.77;8.30;;;18.20;99.90;;;;;;4989739;28;20025;-63
2022/05/12 10:02:00;;;;;;;16.93;8.03;;;18.20;99.90;;;;;;4987678;28;20128;-68
2022/05/12 10:10:30;;;;;;;13.57;7.78;;;18.20;99.90;;;;;;4992729;28;20041;-66
2022/05/12 10:12:59;;;;;;;;;;;18.20;99.90;;;;;;4990426;28;20025;-62
2022/05/12 10:15:35;;;;;;;14.40;8.25;;;18.20;99.90;;;;;;4993772;28;19921;-62
2022/05/12 10:18:04;;;;;;;17.13;8.52;;;18.10;99.90;;;;;;4993250;28;20464;-66
2022/05/12 10:20:36;;;;;;;16.50;8.35;;;18.10;99.90;;;;;;4991617;28;20030;-62
2022/05/12 10:23:10;;;;;;;11.77;7.63;;;18.10;99.90;;;;;;5031867;28;20094;-67
2022/05/12 10:26:02;;;;;;;12.93;9.27;;;18.10;99.90;;;;;;5069630;28;20353;-62
2022/05/12 10:28:52;;;;;;;15.18;9.00;;;18.10;99.90;;;;;;5069040;28;20542;-62
2022/05/12 10:31:27;;;;;;;14.48;10.00;;;18.10;99.90;;;;;;5067332;28;20033;-62
2022/05/12 10:34:30;;;;;;;12.95;9.02;;;18.20;99.90;;;;;;5070498;28;20031;-61
2022/05/12 10:37:15;;;;;;;;;;;18.20;99.90;;;;;;5073053;22;20013;-62
2022/05/12 10:39:47;;;;;;;16.17;10.43;;;18.30;99.90;;;;;;5040741;28;19916;-60
2022/05/12 10:42:17;;;;;;;19.92;11.93;;;18.30;99.90;;;;;;5043035;28;20028;-65
2022/05/12 10:44:51;;;;;;;15.60;11.18;;;18.40;99.90;;;;;;5035478;28;20028;-64
2022/05/12 10:47:39;;;;;;;18.50;12.30;;;18.40;99.90;;;;;;5032435;28;20471;-64
2022/05/12 10:50:20;;;;;;;19.10;12.00;;;18.40;99.90;;;;;;5028681;28;20104;-66
2022/05/12 10:53:02;;;;;;;21.75;15.02;;;18.50;99.90;;;;;;5030519;28;20570;-65
2022/05/12 10:55:51;;;;;;;23.87;15.73;;;18.50;99.90;;;;;;5027975;28;20061;-66
2022/05/12 10:58:29;;;;;;;19.73;14.45;;;18.60;99.90;;;;;;5032189;28;20068;-62
2022/05/12 11:01:28;;;;;;;20.50;14.63;;;18.60;99.90;;;;;;5035757;28;20025;-63
2022/05/12 11:04:07;;;;;;;15.32;12.48;;;18.50;99.90;;;;;;5031635;28;20025;-61
2022/05/12 11:06:58;;;;;;;22.42;17.40;;;18.50;99.90;;;;;;5026528;28;20033;-63
2022/05/12 11:09:45;;;;;;;16.23;13.23;;;18.30;99.90;;;;;;5031450;28;20435;-64
2022/05/12 11:12:27;;;;;;;18.40;13.77;;;18.30;99.90;;;;;;5028020;28;20021;-61
2022/05/12 11:15:06;;;;;;;20.77;13.47;;;18.30;99.90;;;;;;5030367;28;20112;-60
2022/05/12 11:18:01;;;;;;;18.02;12.10;;;18.30;99.90;;;;;;5024721;28;20103;-64
2022/05/12 11:20:33;;;;;;;22.45;16.67;;;18.30;99.90;;;;;;5023886;28;20562;-66
2022/05/12 11:23:08;;;;;;;22.02;15.90;;;18.30;99.90;;;;;;5030755;28;20013;-63
2022/05/12 11:26:04;;;;;;;19.25;12.88;;;18.40;99.90;;;;;;5041525;28;20029;-62
2022/05/12 11:32:09;;;;;;;17.35;13.38;;;18.30;99.90;;;;;;5041543;28;20072;-62
2022/05/12 11:34:38;;;;;;;19.10;15.27;;;18.30;99.90;;;;;;5043842;28;20138;-62
2022/05/12 11:37:35;;;;;;;20.67;14.20;;;18.30;99.90;;;;;;5037782;28;20099;-64
2022/05/12 11:40:11;;;;;;;15.07;11.65;;;18.30;99.90;;;;;;5049708;28;20033;-64
2022/05/12 11:45:48;;;;;;;18.52;12.60;;;18.30;99.90;;;;;;5043974;28;20972;-62
2022/05/12 11:48:36;;;;;;;18.33;11.60;;;18.30;99.90;;;;;;5048383;28;20025;-64
2022/05/12 11:51:14;;;;;;;20.30;13.80;;;18.20;99.90;;;;;;5046110;28;20489;-66
2022/05/12 11:53:48;;;;;;;16.23;12.63;;;18.20;99.90;;;;;;5041902;28;20021;-63
2022/05/12 11:56:46;;;;;;;18.92;13.10;;;18.20;99.90;;;;;;5051393;28;20025;-66
2022/05/12 11:59:30;;;;;;;22.92;13.10;;;18.20;99.90;;;;;;5044711;28;20734;-63
2022/05/12 12:02:00;;;;;;;19.38;13.57;;;18.20;99.90;;;;;;5047196;28;20082;-66
2022/05/12 12:04:40;;;;;;;23.60;14.52;;;18.20;99.90;;;;;;5045139;28;20065;-64
2022/05/12 12:07:17;;;;;;;26.90;13.80;;;18.20;99.90;;;;;;5045440;28;20021;-66
2022/05/12 12:09:43;;;;;;;19.27;13.32;;;18.20;99.90;;;;;;5052329;28;20021;-62
2022/05/12 12:12:31;;;;;;;19.75;13.38;;;18.20;99.90;;;;;;5043347;28;20025;-66
2022/05/12 12:15:01;;;;;;;18.75;12.93;;;18.30;99.90;;;;;;5047360;28;20392;-66
2022/05/12 12:17:34;;;;;;;19.80;13.88;;;18.20;99.90;;;;;;5051181;28;20036;-62
2022/05/12 12:20:09;;;;;;;24.27;14.77;;;18.20;99.90;;;;;;5055043;28;20484;-65
2022/05/12 12:22:45;;;;;;;22.77;13.70;;;18.30;99.90;;;;;;5050557;28;20112;-63
2022/05/12 12:25:30;;;;;;;16.92;13.68;;;18.20;99.90;;;;;;5056078;28;20074;-65
2022/05/12 12:28:22;;;;;;;27.05;14.32;;;18.20;99.90;;;;;;5048183;28;20047;-65
2022/05/12 12:30:55;;;;;;;25.42;14.63;;;18.20;99.90;;;;;;5039309;28;20134;-63
2022/05/12 12:33:25;;;;;;;17.55;12.80;;;18.20;99.90;;;;;;5046025;28;20144;-64
2022/05/12 12:36:04;;;;;;;20.77;14.23;;;18.20;99.90;;;;;;5049419;28;20029;-63
2022/05/12 12:38:46;;;;;;;20.92;13.73;;;18.20;99.90;;;;;;5052909;28;20033;-63
2022/05/12 12:41:16;;;;;;;21.70;14.60;;;18.10;99.90;;;;;;5049235;28;20060;-62
2022/05/12 12:43:49;;;;;;;22.38;13.43;;;18.20;99.90;;;;;;5051123;28;20109;-63
2022/05/12 12:46:33;;;;;;;21.50;13.45;;;18.20;99.90;;;;;;5052573;28;20032;-62
2022/05/12 12:49:24;;;;;;;18.45;12.70;;;18.20;99.90;;;;;;5055272;28;20438;-64
2022/05/12 12:52:05;;;;;;;16.65;12.02;;;18.20;99.90;;;;;;5048568;28;20052;-64
2022/05/12 12:57:40;;;;;;;25.45;13.80;;;18.20;99.90;;;;;;4687103;28;9999708;-62
2022/05/12 13:00:15;;;;;;;23.05;13.15;;;18.20;99.90;;;;;;5044350;28;20017;-63
2022/05/12 13:02:54;;;;;;;26.38;12.98;;;18.30;99.90;;;;;;5040450;28;20133;-62
2022/05/12 13:05:22;;;;;;;19.40;11.98;;;18.30;99.90;;;;;;5039823;28;20496;-62
2022/05/12 13:08:03;;;;;;;21.17;13.68;;;18.20;99.90;;;;;;5039104;28;20080;-61
2022/05/12 13:10:40;;;;;;;19.27;12.65;;;18.20;99.90;;;;;;5047336;28;20501;-61
2022/05/12 13:13:07;;;;;;;21.10;13.45;;;18.20;99.90;;;;;;5044961;28;20076;-62
2022/05/12 13:15:40;;;;;;;18.73;13.48;;;18.30;99.90;;;;;;5042493;28;20472;-64
2022/05/12 13:18:15;;;;;;;20.35;12.27;;;18.30;99.90;;;;;;5051528;28;20487;-63
2022/05/12 13:20:44;;;;;;;21.17;12.43;;;18.20;99.90;;;;;;5041970;28;20016;-64
2022/05/12 13:23:32;;;;;;;17.90;12.18;;;18.30;99.90;;;;;;5040340;28;20076;-64
2022/05/12 13:26:09;;;;;;;19.77;11.10;;;18.30;99.90;;;;;;5043378;28;20434;-61
2022/05/12 13:28:38;;;;;;;20.33;12.80;;;18.30;99.90;;;;;;5044118;28;20100;-61